Time;durP1;ratioP1;P1;durP2;ratioP2;P2;SDS_P1;SDS_P2;PMS_P1;PMS_P2;Temp;Humidity;BMP_temperature;BMP_pressure;BME280_temperature;BME280_humidity;BME280_pressure;Samples;Min_cycle;Max_cycle;Signal;HPM_P1;HPM_P2
2024/01/24 00:00:12;;;;;;;20.52;9.77;;;;;;;-148.88;100.00;-17125.47;5073337;28;20107;-87
2024/01/24 00:02:38;;;;;;;18.77;8.52;;;;;;;-148.88;100.00;-17125.47;5073093;28;20550;-87
2024/01/24 00:05:03;;;;;;;25.08;17.95;;;;;;;-148.88;100.00;-17125.47;5073078;28;20150;-87
2024/01/24 00:07:28;;;;;;;27.02;18.38;;;;;;;-148.88;100.00;-17125.47;5073395;28;20463;-87
2024/01/24 00:09:54;;;;;;;22.73;8.20;;;;;;;-148.88;100.00;-17125.47;5072968;28;20073;-87
2024/01/24 00:12:19;;;;;;;25.70;17.88;;;;;;;-148.88;100.00;-17125.47;5073127;28;20024;-89
2024/01/24 00:14:44;;;;;;;17.30;8.50;;;;;;;-148.88;100.00;-17125.47;5072951;28;20020;-88
2024/01/24 00:17:10;;;;;;;17.83;7.85;;;;;;;-148.88;100.00;-17125.47;5073063;28;20471;-88
2024/01/24 00:19:36;;;;;;;16.45;7.80;;;;;;;-148.88;100.00;-17125.47;5073653;28;20025;-87
2024/01/24 00:22:03;;;;;;;26.30;14.75;;;;;;;-148.88;100.00;-17125.47;5073974;28;20050;-87
2024/01/24 00:24:28;;;;;;;24.02;14.65;;;;;;;-148.88;100.00;-17125.47;5073199;28;20028;-86
2024/01/24 00:26:53;;;;;;;15.93;7.57;;;;;;;-148.88;100.00;-17125.47;5073082;28;20055;-88
2024/01/24 00:29:18;;;;;;;20.48;7.28;;;;;;;-148.88;100.00;-17125.47;5072071;28;20056;-87
2024/01/24 00:31:46;;;;;;;19.45;15.05;;;;;;;-148.88;100.00;-17125.47;5077615;28;20024;-88
2024/01/24 00:34:12;;;;;;;17.83;8.48;;;;;;;-148.88;100.00;-17125.47;5077875;28;20482;-87
2024/01/24 00:36:37;;;;;;;16.85;7.95;;;;;;;-148.88;100.00;-17125.47;5077900;28;20055;-87
2024/01/24 00:39:03;;;;;;;18.30;9.13;;;;;;;-148.88;100.00;-17125.47;5077725;28;20032;-87
2024/01/24 00:41:28;;;;;;;18.60;8.55;;;;;;;-148.88;100.00;-17125.47;5077401;28;20021;-88
2024/01/24 00:43:54;;;;;;;24.27;16.77;;;;;;;-148.88;100.00;-17125.47;5075928;28;20089;-88
2024/01/24 00:46:19;;;;;;;22.92;17.63;;;;;;;-148.88;100.00;-17125.47;5077218;28;20031;-88
2024/01/24 00:48:44;;;;;;;23.20;16.65;;;;;;;-148.88;100.00;-17125.47;5077593;28;20028;-88
2024/01/24 00:51:10;;;;;;;25.00;18.17;;;;;;;-148.88;100.00;-17125.47;5076928;28;20025;-87
2024/01/24 00:53:37;;;;;;;22.38;10.77;;;;;;;-148.88;100.00;-17125.47;5076941;28;20514;-86
2024/01/24 00:56:03;;;;;;;26.10;18.40;;;;;;;-148.88;100.00;-17125.47;5076992;28;20016;-86
2024/01/24 00:58:29;;;;;;;24.83;19.25;;;;;;;-148.88;100.00;-17125.47;5076837;28;20025;-88
2024/01/24 01:00:55;;;;;;;25.60;17.90;;;;;;;-148.88;100.00;-17125.47;5076776;28;20103;-88
2024/01/24 01:03:20;;;;;;;26.58;18.30;;;;;;;-148.88;100.00;-17125.47;5076777;28;20027;-88
2024/01/24 01:05:46;;;;;;;23.27;11.00;;;;;;;-148.88;100.00;-17125.47;5076788;28;20029;-88
2024/01/24 01:08:11;;;;;;;29.92;19.08;;;;;;;-148.88;100.00;-17125.47;5076746;28;20024;-87
2024/01/24 01:10:37;;;;;;;31.17;18.38;;;;;;;-148.88;100.00;-17125.47;5076995;28;20016;-86
2024/01/24 01:13:03;;;;;;;31.77;18.15;;;;;;;-148.88;100.00;-17125.47;5075266;28;20020;-85
2024/01/24 01:15:28;;;;;;;26.48;18.27;;;;;;;-148.88;100.00;-17125.47;5076944;28;20031;-86
2024/01/24 01:17:53;;;;;;;25.02;17.92;;;;;;;-148.88;100.00;-17125.47;5076428;28;20095;-86
2024/01/24 01:20:19;;;;;;;28.02;17.25;;;;;;;-148.88;100.00;-17125.47;5076515;28;20027;-87
2024/01/24 01:22:45;;;;;;;25.15;16.63;;;;;;;-148.88;100.00;-17125.47;5076462;28;20025;-88
2024/01/24 01:25:11;;;;;;;25.42;17.00;;;;;;;-148.88;100.00;-17125.47;5076408;28;20485;-87
2024/01/24 01:27:36;;;;;;;25.55;16.70;;;;;;;-148.88;100.00;-17125.47;5076458;28;20028;-87
2024/01/24 01:30:02;;;;;;;24.75;16.63;;;;;;;-148.88;100.00;-17125.47;5076254;28;20024;-87
2024/01/24 01:32:27;;;;;;;22.15;16.83;;;;;;;-148.88;100.00;-17125.47;5075819;28;20024;-87
2024/01/24 01:34:54;;;;;;;23.65;16.70;;;;;;;-148.88;100.00;-17125.47;5075828;28;20029;-87
2024/01/24 01:37:21;;;;;;;23.75;15.05;;;;;;;-148.88;100.00;-17125.47;5075730;28;20031;-87
2024/01/24 01:39:46;;;;;;;24.77;16.83;;;;;;;-148.88;100.00;-17125.47;5074301;28;20032;-86
2024/01/24 01:42:11;;;;;;;24.45;16.80;;;;;;;-148.88;100.00;-17125.47;5075795;28;20028;-87
2024/01/24 01:44:48;;;;;;;24.50;17.73;;;;;;;-148.88;100.00;-17125.47;5075904;28;20112;-89
2024/01/24 01:47:15;;;;;;;23.42;11.02;;;;;;;-148.88;100.00;-17125.47;5075623;28;20047;-87
2024/01/24 01:49:44;;;;;;;27.70;17.67;;;;;;;-148.88;100.00;-17125.47;5075674;28;20104;-87
2024/01/24 01:52:10;;;;;;;21.48;10.63;;;;;;;-148.88;100.00;-17125.47;5075759;28;20059;-87
2024/01/24 01:54:38;;;;;;;28.75;17.67;;;;;;;-148.88;100.00;-17125.47;5075247;28;20108;-88
2024/01/24 01:57:04;;;;;;;23.95;18.33;;;;;;;-148.88;100.00;-17125.47;5075436;28;20020;-88
2024/01/24 01:59:30;;;;;;;26.20;18.25;;;;;;;-148.88;100.00;-17125.47;5075272;28;20048;-88
2024/01/24 02:02:00;;;;;;;26.15;17.85;;;;;;;-148.88;100.00;-17125.47;5075280;28;20372;-88
2024/01/24 02:04:26;;;;;;;27.52;17.80;;;;;;;-148.88;100.00;-17125.47;5075060;28;20477;-88
2024/01/24 02:06:52;;;;;;;25.15;19.35;;;;;;;-148.88;100.00;-17125.47;5075271;28;20025;-88
2024/01/24 02:09:17;;;;;;;28.23;19.98;;;;;;;-148.88;100.00;-17125.47;5075508;28;20588;-89
2024/01/24 02:11:43;;;;;;;29.02;19.77;;;;;;;-148.88;100.00;-17125.47;5075118;28;20029;-88
2024/01/24 02:14:09;;;;;;;25.33;19.50;;;;;;;-148.88;100.00;-17125.47;5075274;28;20025;-88
2024/01/24 02:16:34;;;;;;;27.02;19.83;;;;;;;-148.88;100.00;-17125.47;5075619;28;20024;-89
2024/01/24 02:19:00;;;;;;;27.50;19.25;;;;;;;-148.88;100.00;-17125.47;5075047;28;20051;-88
2024/01/24 02:21:25;;;;;;;25.15;18.58;;;;;;;-148.88;100.00;-17125.47;5075107;28;20479;-90
2024/01/24 02:23:51;;;;;;;27.83;19.33;;;;;;;-148.88;100.00;-17125.47;5075186;28;20024;-89
2024/01/24 02:26:16;;;;;;;24.70;18.65;;;;;;;-148.88;100.00;-17125.47;5074994;28;20421;-88
2024/01/24 02:28:41;;;;;;;23.67;18.00;;;;;;;-148.88;100.00;-17125.47;5074802;28;20021;-90
2024/01/24 02:31:07;;;;;;;25.63;18.48;;;;;;;-148.88;100.00;-17125.47;5073729;28;20399;-90
2024/01/24 02:33:32;;;;;;;23.60;18.50;;;;;;;-148.88;100.00;-17125.47;5074861;28;20538;-89
2024/01/24 02:35:58;;;;;;;23.45;18.90;;;;;;;-148.88;100.00;-17125.47;5074882;28;20025;-89
2024/01/24 02:38:23;;;;;;;28.05;18.98;;;;;;;-148.88;100.00;-17125.47;5074870;28;20082;-88
2024/01/24 02:40:49;;;;;;;25.25;19.05;;;;;;;-148.88;100.00;-17125.47;5073730;28;20060;-89
2024/01/24 02:43:14;;;;;;;23.25;18.73;;;;;;;-148.88;100.00;-17125.47;5074525;28;20399;-89
2024/01/24 02:45:40;;;;;;;22.02;17.83;;;;;;;-148.88;100.00;-17125.47;5074708;28;20056;-90
2024/01/24 02:48:05;;;;;;;21.27;17.33;;;;;;;-148.88;100.00;-17125.47;5090155;28;20527;-89
2024/01/24 02:50:30;;;;;;;24.38;18.20;;;;;;;-148.88;100.00;-17125.47;5075251;28;20032;-89
2024/01/24 02:52:56;;;;;;;19.45;15.85;;;;;;;-148.88;100.00;-17125.47;5074554;28;20028;-88
2024/01/24 02:55:21;;;;;;;20.77;16.17;;;;;;;-148.88;100.00;-17125.47;5074442;28;20475;-89
2024/01/24 02:57:47;;;;;;;17.38;14.75;;;;;;;-148.88;100.00;-17125.47;5074769;28;20471;-90
2024/01/24 03:00:13;;;;;;;15.95;13.65;;;;;;;-148.88;100.00;-17125.47;5074979;28;20074;-89
2024/01/24 03:02:39;;;;;;;14.60;12.40;;;;;;;-148.88;100.00;-17125.47;5090031;28;20036;-88
2024/01/24 03:05:06;;;;;;;16.40;12.98;;;;;;;-148.88;100.00;-17125.47;5074537;28;20046;-87
2024/01/24 03:07:31;;;;;;;16.20;12.32;;;;;;;-148.88;100.00;-17125.47;5074405;28;20021;-90
2024/01/24 03:09:57;;;;;;;13.90;11.43;;;;;;;-148.88;100.00;-17125.47;5076123;28;20506;-89
2024/01/24 03:12:22;;;;;;;14.32;8.40;;;;;;;-148.88;100.00;-17125.47;5074155;28;20028;-89
2024/01/24 03:14:47;;;;;;;11.30;9.95;;;;;;;-148.88;100.00;-17125.47;5074154;28;20024;-89
2024/01/24 03:17:13;;;;;;;10.38;8.98;;;;;;;-148.88;100.00;-17125.47;5074111;28;20028;-89
2024/01/24 03:19:38;;;;;;;9.45;8.35;;;;;;;-148.88;100.00;-17125.47;5074112;28;20043;-88
2024/01/24 03:22:04;;;;;;;12.35;9.30;;;;;;;-148.88;100.00;-17125.47;5074530;28;20028;-89
2024/01/24 03:24:29;;;;;;;13.32;8.77;;;;;;;-148.88;100.00;-17125.47;5074054;28;20032;-89
2024/01/24 03:26:55;;;;;;;10.70;8.63;;;;;;;-148.88;100.00;-17125.47;5072581;28;20032;-89
2024/01/24 03:29:20;;;;;;;9.43;8.43;;;;;;;-148.88;100.00;-17125.47;5074065;28;20097;-89
2024/01/24 03:31:46;;;;;;;9.55;8.57;;;;;;;-148.88;100.00;-17125.47;5073633;28;20517;-89
2024/01/24 03:34:11;;;;;;;8.80;7.90;;;;;;;-148.88;100.00;-17125.47;5073868;28;20043;-89
2024/01/24 03:36:37;;;;;;;10.07;7.78;;;;;;;-148.88;100.00;-17125.47;5074095;28;20024;-89
2024/01/24 03:39:03;;;;;;;8.55;7.65;;;;;;;-148.88;100.00;-17125.47;5073954;28;20376;-88
2024/01/24 03:41:29;;;;;;;11.73;7.95;;;;;;;-148.88;100.00;-17125.47;5073907;28;20078;-88
2024/01/24 03:43:54;;;;;;;11.98;7.22;;;;;;;-148.88;100.00;-17125.47;5073872;28;20016;-88
2024/01/24 03:46:20;;;;;;;9.40;7.35;;;;;;;-148.88;100.00;-17125.47;5073831;28;20530;-89
2024/01/24 03:48:45;;;;;;;7.70;6.97;;;;;;;-148.88;100.00;-17125.47;5074466;28;20017;-89
2024/01/24 03:51:11;;;;;;;9.13;6.55;;;;;;;-148.88;100.00;-17125.47;5073663;28;20020;-88
2024/01/24 03:53:37;;;;;;;7.20;6.50;;;;;;;-148.88;100.00;-17125.47;5072306;28;20031;-88
2024/01/24 03:56:03;;;;;;;6.43;5.78;;;;;;;-148.88;100.00;-17125.47;5073875;28;20026;-88
2024/01/24 03:58:28;;;;;;;6.97;5.97;;;;;;;-148.88;100.00;-17125.47;5073434;28;20032;-89
2024/01/24 04:00:55;;;;;;;5.90;5.38;;;;;;;-148.88;100.00;-17125.47;5073374;28;20027;-88
2024/01/24 04:03:21;;;;;;;5.88;4.90;;;;;;;-148.88;100.00;-17125.47;5073358;28;20402;-90
2024/01/24 04:05:47;;;;;;;5.28;4.78;;;;;;;-148.88;100.00;-17125.47;5074059;28;20101;-89
2024/01/24 04:08:12;;;;;;;5.32;4.30;;;;;;;-148.88;100.00;-17125.47;5073510;28;20467;-89
2024/01/24 04:10:38;;;;;;;4.70;4.30;;;;;;;-148.88;100.00;-17125.47;5073468;28;20024;-90
2024/01/24 04:13:03;;;;;;;2.95;2.33;;;;;;;-148.88;100.00;-17125.47;5073526;28;20059;-87
2024/01/24 04:15:29;;;;;;;3.53;2.60;;;;;;;-148.88;100.00;-17125.47;5073991;28;20060;-90
2024/01/24 04:17:55;;;;;;;4.05;3.25;;;;;;;-148.88;100.00;-17125.47;5073069;28;20059;-89
2024/01/24 04:20:20;;;;;;;3.53;3.00;;;;;;;-148.88;100.00;-17125.47;5073313;28;20388;-89
2024/01/24 04:22:46;;;;;;;2.28;1.92;;;;;;;-148.88;100.00;-17125.47;5073360;28;20104;-90
2024/01/24 04:25:12;;;;;;;3.75;1.83;;;;;;;-148.88;100.00;-17125.47;5072246;28;20066;-88
2024/01/24 04:27:37;;;;;;;2.40;1.50;;;;;;;-148.88;100.00;-17125.47;5073474;28;20027;-90
2024/01/24 04:30:04;;;;;;;1.80;1.05;;;;;;;-148.88;100.00;-17125.47;5073570;28;20028;-86
2024/01/24 04:32:30;;;;;;;1.30;0.90;;;;;;;-148.88;100.00;-17125.47;5073345;28;20024;-90
2024/01/24 04:34:55;;;;;;;1.73;0.95;;;;;;;-148.88;100.00;-17125.47;5073182;28;20030;-89
2024/01/24 04:37:21;;;;;;;2.95;0.95;;;;;;;-148.88;100.00;-17125.47;5073204;28;20037;-90
2024/01/24 04:39:46;;;;;;;1.35;0.70;;;;;;;-148.88;100.00;-17125.47;5073096;28;20032;-88
2024/01/24 04:42:11;;;;;;;1.40;0.68;;;;;;;-148.88;100.00;-17125.47;5073095;28;20024;-89
2024/01/24 04:44:37;;;;;;;1.60;0.60;;;;;;;-148.88;100.00;-17125.47;5071996;28;20475;-87
2024/01/24 04:47:02;;;;;;;1.85;0.60;;;;;;;-148.88;100.00;-17125.47;5073543;28;20028;-89
2024/01/24 04:49:28;;;;;;;1.27;0.50;;;;;;;-148.88;100.00;-17125.47;5073107;28;20028;-88
2024/01/24 04:51:53;;;;;;;0.85;0.60;;;;;;;-148.88;100.00;-17125.47;5073071;28;20063;-87
2024/01/24 04:54:18;;;;;;;1.88;0.60;;;;;;;-148.88;100.00;-17125.47;5072857;28;20033;-88
2024/01/24 04:56:47;;;;;;;1.35;0.60;;;;;;;-148.88;100.00;-17125.47;5072763;28;20055;-87
2024/01/24 04:59:13;;;;;;;1.52;0.50;;;;;;;-148.88;100.00;-17125.47;5072607;28;20024;-87
2024/01/24 05:01:38;;;;;;;2.00;0.80;;;;;;;-148.88;100.00;-17125.47;5072717;28;20115;-89
2024/01/24 05:04:04;;;;;;;2.33;0.60;;;;;;;-148.88;100.00;-17125.47;5072654;28;20078;-88
2024/01/24 05:06:29;;;;;;;3.90;0.73;;;;;;;-148.88;100.00;-17125.47;5073837;28;20047;-88
2024/01/24 05:09:11;;;;;;;2.40;0.80;;;;;;;-148.88;100.00;-17125.47;5071511;28;20104;-88
2024/01/24 05:11:40;;;;;;;2.35;0.73;;;;;;;-148.88;100.00;-17125.47;5071588;28;20031;-87
2024/01/24 05:14:05;;;;;;;3.75;0.90;;;;;;;-148.88;100.00;-17125.47;5073045;28;20028;-89
2024/01/24 05:16:31;;;;;;;2.78;0.93;;;;;;;-148.88;100.00;-17125.47;5073019;28;20502;-88
2024/01/24 05:18:56;;;;;;;4.47;1.00;;;;;;;-148.88;100.00;-17125.47;5076584;28;20064;-87
2024/01/24 05:21:21;;;;;;;1.30;0.47;;;;;;;-148.88;100.00;-17125.47;5076432;28;20082;-87
2024/01/24 05:23:47;;;;;;;2.88;1.10;;;;;;;-148.88;100.00;-17125.47;5076185;28;20078;-88
2024/01/24 05:26:12;;;;;;;5.05;1.10;;;;;;;-148.88;100.00;-17125.47;5076208;28;20029;-87
2024/01/24 05:28:43;;;;;;;7.10;1.27;;;;;;;-148.88;100.00;-17125.47;5075105;28;20020;-88
2024/01/24 05:31:08;;;;;;;4.97;1.30;;;;;;;-148.88;100.00;-17125.47;5076854;28;20075;-87
2024/01/24 05:33:37;;;;;;;5.22;1.10;;;;;;;-148.88;100.00;-17125.47;5074850;28;20454;-87
2024/01/24 05:36:02;;;;;;;6.15;1.30;;;;;;;-148.88;100.00;-17125.47;5075756;28;20383;-87
2024/01/24 05:38:29;;;;;;;5.60;1.55;;;;;;;-148.88;100.00;-17125.47;5075067;28;20021;-88
2024/01/24 05:40:57;;;;;;;6.00;1.35;;;;;;;-148.88;100.00;-17125.47;5075629;28;20531;-87
2024/01/24 05:43:23;;;;;;;7.70;1.55;;;;;;;-148.88;100.00;-17125.47;5075909;28;20046;-87
2024/01/24 05:45:51;;;;;;;8.32;2.00;;;;;;;-148.88;100.00;-17125.47;5078189;28;20028;-87
2024/01/24 05:48:17;;;;;;;12.77;2.25;;;;;;;-148.88;100.00;-17125.47;5075135;28;20017;-87
2024/01/24 05:50:43;;;;;;;7.47;2.00;;;;;;;-148.88;100.00;-17125.47;5076056;28;20025;-89
2024/01/24 05:53:08;;;;;;;11.30;2.50;;;;;;;-148.88;100.00;-17125.47;5074579;28;20039;-86
2024/01/24 05:55:39;;;;;;;12.55;2.35;;;;;;;-148.88;100.00;-17125.47;5076534;28;20056;-87
2024/01/24 05:58:06;;;;;;;8.98;2.20;;;;;;;-148.88;100.00;-17125.47;5076384;28;20025;-88
2024/01/24 06:00:32;;;;;;;9.77;2.67;;;;;;;-148.88;100.00;-17125.47;5075577;28;20024;-90
2024/01/24 06:02:57;;;;;;;12.38;2.95;;;;;;;-148.88;100.00;-17125.47;5074256;28;20043;-87
2024/01/24 06:05:26;;;;;;;11.88;2.83;;;;;;;-148.88;98.79;-17125.47;5075805;28;20036;-87
2024/01/24 06:07:51;;;;;;;10.32;2.72;;;;;;;-148.88;100.00;-17125.47;5074459;28;20035;-90
2024/01/24 06:10:17;;;;;;;10.32;2.85;;;;;;;-148.88;100.00;-17125.47;5074345;28;20021;-86
2024/01/24 06:12:42;;;;;;;17.20;3.53;;;;;;;-148.88;99.58;-17125.47;5075656;28;20403;-89
2024/01/24 06:15:08;;;;;;;11.88;3.53;;;;;;;-148.88;100.00;-17125.47;5074967;28;20073;-88
2024/01/24 06:17:34;;;;;;;16.92;3.55;;;;;;;-148.88;100.00;-17125.47;5075223;28;20202;-83
2024/01/24 06:20:00;;;;;;;13.80;3.30;;;;;;;-148.88;99.74;-17125.47;5075884;28;20584;-87
2024/01/24 06:22:25;;;;;;;12.02;3.35;;;;;;;-148.88;100.00;-17125.47;5075104;28;20034;-86
2024/01/24 06:24:51;;;;;;;17.63;3.60;;;;;;;-148.88;100.00;-17125.47;5075602;28;20017;-87
2024/01/24 06:27:16;;;;;;;13.35;3.70;;;;;;;-148.88;100.00;-17125.47;5074914;28;20028;-89
2024/01/24 06:29:42;;;;;;;17.30;4.05;;;;;;;-148.88;100.00;-17125.47;5074964;28;20056;-89
2024/01/24 06:32:07;;;;;;;16.48;4.63;;;;;;;-148.88;96.59;-17125.47;5075505;28;20027;-87
2024/01/24 06:34:32;;;;;;;18.88;4.40;;;;;;;-148.88;95.77;-17125.47;5073842;28;20032;-88
2024/01/24 06:36:59;;;;;;;17.95;4.28;;;;;;;-148.88;95.88;-17125.47;5075747;28;20034;-91
2024/01/24 06:39:24;;;;;;;19.10;4.22;;;;;;;-148.88;95.84;-17125.47;5075567;28;20032;-89
2024/01/24 06:41:51;;;;;;;21.83;4.47;;;;;;;-148.88;94.24;-17125.47;5074396;28;20033;-89
2024/01/24 06:44:19;;;;;;;17.65;4.80;;;;;;;-148.88;93.06;-17125.47;5075093;28;20024;-89
2024/01/24 06:46:45;;;;;;;23.90;5.10;;;;;;;-148.88;93.07;-17125.47;5074017;28;20082;-90
2024/01/24 06:49:11;;;;;;;23.83;4.97;;;;;;;-148.88;92.73;-17125.47;5074785;28;20017;-87
2024/01/24 06:51:37;;;;;;;16.67;4.55;;;;;;;-148.88;93.66;-17125.47;5075167;28;20515;-90
2024/01/24 06:54:12;;;;;;;18.50;4.57;;;;;;;-148.88;94.64;-17125.47;5074451;28;20028;-92
2024/01/24 06:56:37;;;;;;;15.32;4.28;;;;;;;-148.88;96.75;-17125.47;5074624;28;20027;-89
2024/01/24 06:59:03;;;;;;;25.75;4.75;;;;;;;-148.88;96.99;-17125.47;5074694;28;20020;-91
2024/01/24 07:01:28;;;;;;;18.33;4.65;;;;;;;-148.88;98.09;-17125.47;5075152;28;20031;-89
2024/01/24 07:03:54;;;;;;;15.48;4.25;;;;;;;-148.88;96.01;-17125.47;5073177;28;20463;-90
2024/01/24 07:06:19;;;;;;;20.33;4.38;;;;;;;-148.88;96.03;-17125.47;5073651;28;20024;-88
2024/01/24 07:08:44;;;;;;;16.48;4.10;;;;;;;-148.88;98.24;-17125.47;5075367;28;20373;-89
2024/01/24 07:11:10;;;;;;;15.57;4.13;;;;;;;-148.88;97.69;-17125.47;5075070;28;20032;-88
2024/01/24 07:13:38;;;;;;;20.27;4.38;;;;;;;-148.88;98.96;-17125.47;5073994;28;20051;-89
2024/01/24 07:16:04;;;;;;;18.77;5.13;;;;;;;-148.88;98.92;-17125.47;5072662;28;20021;-87
2024/01/24 07:18:33;;;;;;;20.52;4.82;;;;;;;-148.88;98.76;-17125.47;5073744;28;20453;-89
2024/01/24 07:21:02;;;;;;;16.55;4.53;;;;;;;-148.88;97.62;-17125.47;5073847;28;20518;-90
2024/01/24 07:23:27;;;;;;;19.63;4.68;;;;;;;-148.88;97.39;-17125.47;5074182;28;20032;-90
2024/01/24 07:25:55;;;;;;;21.80;5.00;;;;;;;-148.88;98.30;-17125.47;5072670;28;20463;-86
2024/01/24 07:28:22;;;;;;;22.75;4.97;;;;;;;-148.88;96.51;-17125.47;5072334;28;20036;-89
2024/01/24 07:30:53;;;;;;;26.95;5.93;;;;;;;-148.88;97.05;-17125.47;5074621;28;20024;-90
2024/01/24 07:33:18;;;;;;;24.83;5.90;;;;;;;-148.88;96.47;-17125.47;5072633;28;20108;-88
2024/01/24 07:35:44;;;;;;;23.85;5.47;;;;;;;-148.88;96.96;-17125.47;5072615;28;20028;-88
2024/01/24 07:38:09;;;;;;;17.30;4.20;;;;;;;-148.88;98.10;-17125.47;5072400;28;20026;-87
2024/01/24 07:40:37;;;;;;;21.02;5.25;;;;;;;-148.88;97.88;-17125.47;5072488;28;20020;-88
2024/01/24 07:43:02;;;;;;;22.45;5.20;;;;;;;-148.88;97.78;-17125.47;5072301;28;20024;-90
2024/01/24 07:45:28;;;;;;;16.90;2.35;;;;;;;-148.88;98.83;-17125.47;5073726;28;20101;-91
2024/01/24 07:47:53;;;;;;;17.23;4.55;;;;;;;-148.88;98.54;-17125.47;5072922;28;20444;-88
2024/01/24 07:50:19;;;;;;;26.10;5.75;;;;;;;-148.88;99.99;-17125.47;5073047;28;20111;-89
2024/01/24 07:52:44;;;;;;;20.88;4.95;;;;;;;-148.88;99.77;-17125.47;5072232;28;20119;-89
2024/01/24 07:55:31;;;;;;;14.60;3.17;;;;;;;-148.88;99.15;-17125.47;5071976;28;20111;-89
2024/01/24 07:57:56;;;;;;;22.45;5.60;;;;;;;-148.88;100.00;-17125.47;5072382;28;20032;-89
2024/01/24 08:00:22;;;;;;;24.75;5.65;;;;;;;-148.88;100.00;-17125.47;5073691;28;20421;-89
2024/01/24 08:02:48;;;;;;;20.98;5.82;;;;;;;-148.88;100.00;-17125.47;5073191;28;20103;-90
2024/01/24 08:05:13;;;;;;;18.98;5.07;;;;;;;-148.88;100.00;-17125.47;5073552;28;20043;-88
2024/01/24 08:07:42;;;;;;;25.02;5.88;;;;;;;-148.88;100.00;-17125.47;5072080;28;20040;-88
2024/01/24 08:10:11;;;;;;;26.35;5.60;;;;;;;-148.88;100.00;-17125.47;5072196;28;20471;-91
2024/01/24 08:12:39;;;;;;;23.02;5.05;;;;;;;-148.88;99.45;-17125.47;5073543;28;20024;-90
2024/01/24 08:15:09;;;;;;;23.92;5.97;;;;;;;-148.88;99.13;-17125.47;5071916;28;20024;-89
2024/01/24 08:17:37;;;;;;;24.95;5.22;;;;;;;-148.88;99.44;-17125.47;5071889;28;20081;-89
2024/01/24 08:20:15;;;;;;;26.42;5.85;;;;;;;-148.88;99.82;-17125.47;5073343;28;20025;-89
2024/01/24 08:22:41;;;;;;;24.70;5.88;;;;;;;-148.88;99.75;-17125.47;5073121;28;20021;-89
2024/01/24 08:25:07;;;;;;;24.60;5.43;;;;;;;-148.88;100.00;-17125.47;5073528;28;20158;-90
2024/01/24 08:27:40;;;;;;;27.35;6.13;;;;;;;-148.88;100.00;-17125.47;5071864;28;20024;-90
2024/01/24 08:30:08;;;;;;;23.42;4.55;;;;;;;-148.88;100.00;-17125.47;5073602;28;20116;-90
2024/01/24 08:32:33;;;;;;;31.10;6.25;;;;;;;-148.88;100.00;-17125.47;5072976;28;20126;-90
2024/01/24 08:34:59;;;;;;;24.85;5.28;;;;;;;-148.88;100.00;-17125.47;5071699;28;20056;-89
2024/01/24 08:37:30;;;;;;;27.38;6.25;;;;;;;-148.88;100.00;-17125.47;5073413;28;20025;-89
2024/01/24 08:39:55;;;;;;;23.63;6.38;;;;;;;-148.88;100.00;-17125.47;5071641;28;20021;-90
2024/01/24 08:42:20;;;;;;;28.65;7.03;;;;;;;-148.88;100.00;-17125.47;5071512;28;20050;-89
2024/01/24 08:44:57;;;;;;;26.05;6.32;;;;;;;-148.88;100.00;-17125.47;5072643;28;20027;-90
2024/01/24 08:47:26;;;;;;;27.20;6.15;;;;;;;-148.88;100.00;-17125.47;5071735;28;20021;-87
2024/01/24 08:49:53;;;;;;;10.90;2.88;;;;;;;-148.88;100.00;-17125.47;5072889;28;20029;-87
2024/01/24 08:52:19;;;;;;;23.15;6.05;;;;;;;-148.88;100.00;-17125.47;5075923;28;20483;-88
2024/01/24 08:54:44;;;;;;;29.08;6.70;;;;;;;-148.88;99.46;-17125.47;5075862;28;20028;-84
2024/01/24 08:57:10;;;;;;;24.48;5.38;;;;;;;-148.88;99.53;-17125.47;5077232;28;20501;-85
2024/01/24 08:59:38;;;;;;;23.95;5.80;;;;;;;-148.88;99.60;-17125.47;5076491;28;20029;-87
2024/01/24 09:02:13;;;;;;;23.92;5.88;;;;;;;-148.88;99.41;-17125.47;5092588;28;20036;-91
2024/01/24 09:04:38;;;;;;;16.38;3.00;;;;;;;-148.88;98.65;-17125.47;5078195;28;20028;-86
2024/01/24 09:07:04;;;;;;;25.45;6.63;;;;;;;-148.88;99.29;-17125.47;5075391;28;20016;-88
2024/01/24 09:09:32;;;;;;;31.60;6.60;;;;;;;-148.88;99.98;-17125.47;5075579;28;20041;-86
2024/01/24 09:12:01;;;;;;;23.20;6.65;;;;;;;-148.88;98.70;-17125.47;5075895;28;20119;-88
2024/01/24 09:14:26;;;;;;;26.30;6.43;;;;;;;-148.88;97.51;-17125.47;5077090;28;20032;-89
2024/01/24 09:16:52;;;;;;;24.67;5.82;;;;;;;-148.88;97.94;-17125.47;5077059;28;20031;-88
2024/01/24 09:19:18;;;;;;;30.33;6.45;;;;;;;-148.88;98.17;-17125.47;5076966;28;20398;-88
2024/01/24 09:21:43;;;;;;;21.67;2.85;;;;;;;-148.88;98.47;-17125.47;5075729;28;20036;-87
2024/01/24 09:24:11;;;;;;;20.13;3.55;;;;;;;-148.88;99.14;-17125.47;5076615;28;20224;-87
2024/01/24 09:26:37;;;;;;;27.17;6.57;;;;;;;-148.88;98.15;-17125.47;5077136;28;20031;-86
2024/01/24 09:29:02;;;;;;;32.58;6.57;;;;;;;-148.88;98.53;-17125.47;5084859;28;20024;-88
2024/01/24 09:31:29;;;;;;;32.38;7.20;;;;;;;-148.88;98.22;-17125.47;5075526;28;20032;-88
2024/01/24 09:33:55;;;;;;;18.63;3.22;;;;;;;-148.88;98.44;-17125.47;5075365;28;20021;-88
2024/01/24 09:36:23;;;;;;;27.60;7.15;;;;;;;-148.88;98.63;-17125.47;5075151;28;20031;-87
2024/01/24 09:38:52;;;;;;;33.88;7.18;;;;;;;-148.88;99.25;-17125.47;5075351;28;20025;-88
2024/01/24 09:41:24;;;;;;;24.17;3.35;;;;;;;-148.88;98.21;-17125.47;5075359;28;20024;-89
2024/01/24 09:43:58;;;;;;;34.38;4.35;;;;;;;-148.88;99.13;-17125.47;5076392;28;20031;-86
2024/01/24 09:46:24;;;;;;;;;;;;;;;-148.88;98.70;-17125.47;5075545;28;20492;-86
2024/01/24 09:48:55;;;;;;;28.92;6.68;;;;;;;-148.88;97.62;-17125.47;5077421;28;19920;-89
2024/01/24 09:51:24;;;;;;;24.15;6.47;;;;;;;-148.88;99.29;-17125.47;5075692;28;20054;-88
2024/01/24 09:53:52;;;;;;;14.48;3.45;;;;;;;-148.88;98.10;-17125.47;5076289;28;20028;-87
2024/01/24 09:56:24;;;;;;;19.42;3.70;;;;;;;-148.88;98.18;-17125.47;5075879;28;20028;-87
2024/01/24 09:58:51;;;;;;;21.20;3.85;;;;;;;-148.88;97.02;-17125.47;5075719;28;20100;-88
2024/01/24 10:01:19;;;;;;;31.65;7.05;;;;;;;-148.88;97.83;-17125.47;5074668;28;20544;-87
2024/01/24 10:03:49;;;;;;;30.17;7.45;;;;;;;-148.88;98.42;-17125.47;5075787;28;20032;-87
2024/01/24 10:06:15;;;;;;;22.15;5.95;;;;;;;-148.88;97.45;-17125.47;5074412;28;20032;-87
2024/01/24 10:08:40;;;;;;;28.33;3.83;;;;;;;-148.88;98.05;-17125.47;5074939;28;20028;-87
2024/01/24 10:11:09;;;;;;;30.20;7.10;;;;;;;-148.88;97.68;-17125.47;5074648;28;20024;-88
2024/01/24 10:13:37;;;;;;;29.00;7.90;;;;;;;-148.88;97.44;-17125.47;5075888;28;20024;-87
2024/01/24 10:16:05;;;;;;;26.52;7.18;;;;;;;-148.88;97.66;-17125.47;5074805;28;20024;-88
2024/01/24 10:18:33;;;;;;;26.00;6.35;;;;;;;-148.88;97.29;-17125.47;5074353;28;20043;-87
2024/01/24 10:21:02;;;;;;;27.38;6.60;;;;;;;-148.88;95.77;-17125.47;5075200;28;20395;-86
2024/01/24 10:23:29;;;;;;;26.85;6.75;;;;;;;-148.88;96.77;-17125.47;5075352;28;20043;-87
2024/01/24 10:25:54;;;;;;;25.27;4.50;;;;;;;-148.88;97.18;-17125.47;5076305;28;20027;-87
2024/01/24 10:28:26;;;;;;;24.52;6.07;;;;;;;-148.88;96.86;-17125.47;5075321;28;20052;-88
2024/01/24 10:30:51;;;;;;;21.85;5.63;;;;;;;-148.88;95.89;-17125.47;5075089;28;20033;-87
2024/01/24 10:33:17;;;;;;;17.65;3.15;;;;;;;-148.88;96.50;-17125.47;5076074;28;20032;-87
2024/01/24 10:35:44;;;;;;;28.10;6.60;;;;;;;-148.88;96.69;-17125.47;5076134;28;20340;-87
2024/01/24 10:38:11;;;;;;;25.88;6.20;;;;;;;-148.88;97.44;-17125.47;5075593;28;20033;-87
2024/01/24 10:40:46;;;;;;;14.80;3.60;;;;;;;-148.88;95.55;-17125.47;5075284;28;20028;-88
2024/01/24 10:43:12;;;;;;;25.63;5.97;;;;;;;-148.88;95.73;-17125.47;5075216;28;20085;-87
2024/01/24 10:45:42;;;;;;;25.38;7.40;;;;;;;-148.88;95.63;-17125.47;5073471;28;20021;-87
2024/01/24 10:48:11;;;;;;;27.55;5.97;;;;;;;-148.88;95.59;-17125.47;5075475;28;20039;-86
2024/01/24 10:50:39;;;;;;;30.60;6.82;;;;;;;-148.88;95.40;-17125.47;5074754;28;20059;-87
2024/01/24 10:53:05;;;;;;;23.65;6.60;;;;;;;-148.88;95.32;-17125.47;5074662;28;20547;-88